createdAt,value
2018-01-16T00:01:45.510Z,98.31
2018-01-16T00:04:13.083Z,98.46
2018-01-16T00:06:39.930Z,98.04
2018-01-16T00:09:06.752Z,98.41
2018-01-16T00:11:33.569Z,97.99
2018-01-16T00:14:01.194Z,98.06
2018-01-16T00:16:27.992Z,98.05
2018-01-16T00:18:54.799Z,98.03
2018-01-16T00:21:21.660Z,98.03
2018-01-16T00:23:48.560Z,97.85
2018-01-16T00:26:15.407Z,97.93
2018-01-16T00:28:42.263Z,98.19
2018-01-16T00:31:09.127Z,97.94
2018-01-16T00:54:36.363Z,97.26
2018-01-16T01:18:17.429Z,94.34
2018-01-16T01:20:44.965Z,94.00
2018-01-16T01:23:17.393Z,94.02
2018-01-16T01:25:44.865Z,93.91
2018-01-16T01:28:12.137Z,94.50
2018-01-16T01:30:39.670Z,94.43
2018-01-16T01:33:06.648Z,94.16
2018-01-16T01:35:33.502Z,94.58
2018-01-16T01:38:00.333Z,94.58
2018-01-16T01:40:27.170Z,94.20
2018-01-16T01:42:54.040Z,94.70
2018-01-16T01:45:20.952Z,94.91
2018-01-16T01:47:47.906Z,95.00
2018-01-16T01:50:14.848Z,94.57
2018-01-16T01:52:41.666Z,93.95
2018-01-16T01:55:08.475Z,93.23
2018-01-16T01:57:35.285Z,93.79
2018-01-16T02:00:02.977Z,93.70
2018-01-16T02:02:30.702Z,94.13
2018-01-16T02:04:57.519Z,94.12
2018-01-16T02:07:24.335Z,93.65
2018-01-16T02:09:51.175Z,94.58
2018-01-16T02:12:18.017Z,94.34
2018-01-16T02:14:44.896Z,94.66
2018-01-16T02:17:11.690Z,94.80
2018-01-16T02:19:38.619Z,94.71
2018-01-16T02:22:05.475Z,94.74
2018-01-16T02:24:32.274Z,94.05
2018-01-16T02:26:59.098Z,93.95
2018-01-16T02:29:25.901Z,94.25
2018-01-16T02:31:52.726Z,94.74
2018-01-16T02:34:19.526Z,94.85
2018-01-16T02:36:46.399Z,94.83
2018-01-16T02:39:14.788Z,94.69
2018-01-16T02:41:42.648Z,94.84
2018-01-16T02:44:09.642Z,94.94
2018-01-16T02:46:36.649Z,95.01
2018-01-16T02:49:06.048Z,94.85
2018-01-16T02:51:42.896Z,94.85
2018-01-16T02:54:14.288Z,94.74
2018-01-16T02:56:43.052Z,93.77
2018-01-16T02:59:10.559Z,94.15
2018-01-16T03:01:37.782Z,94.33
2018-01-16T03:04:04.880Z,93.82
2018-01-16T03:06:32.857Z,93.77
2018-01-16T03:09:00.411Z,93.77
2018-01-16T03:11:29.612Z,94.28
2018-01-16T03:13:56.974Z,93.94
2018-01-16T03:16:24.306Z,94.17
2018-01-16T03:18:51.340Z,94.22
2018-01-16T03:21:23.691Z,94.12
2018-01-16T03:23:50.912Z,94.07
2018-01-16T03:26:17.773Z,93.86
2018-01-16T03:28:44.719Z,94.14
2018-01-16T03:31:11.618Z,93.45
2018-01-16T03:33:38.460Z,93.53
2018-01-16T03:36:05.290Z,93.08
2018-01-16T03:38:32.180Z,93.40
2018-01-16T03:40:59.419Z,93.64
2018-01-16T03:43:27.758Z,93.62
2018-01-16T03:45:55.210Z,93.80
2018-01-16T03:48:22.908Z,93.67
2018-01-16T03:50:50.967Z,93.02
2018-01-16T03:53:17.981Z,93.43
2018-01-16T03:55:45.875Z,93.43
2018-01-16T03:58:13.431Z,92.93
2018-01-16T04:00:40.383Z,91.83
2018-01-16T04:03:07.289Z,92.90
2018-01-16T04:05:34.656Z,93.49
2018-01-16T04:08:02.402Z,93.35
2018-01-16T04:10:29.500Z,92.75
2018-01-16T04:12:57.638Z,93.30
2018-01-16T04:15:31.704Z,92.71
2018-01-16T04:18:05.571Z,91.30
2018-01-16T04:20:33.962Z,91.67
2018-01-16T04:41:02.916Z,95.43
2018-01-16T04:43:32.520Z,95.38
2018-01-16T04:46:01.436Z,95.56
2018-01-16T04:48:33.610Z,96.21
2018-01-16T04:51:01.015Z,96.05
2018-01-16T04:53:28.044Z,96.10
2018-01-16T04:55:55.382Z,95.76
2018-01-16T04:58:23.225Z,95.64
2018-01-16T05:00:50.431Z,95.55
2018-01-16T05:03:18.361Z,95.27
2018-01-16T05:05:45.372Z,95.14
2018-01-16T05:08:13.415Z,94.84
2018-01-16T05:10:40.652Z,94.76
2018-01-16T05:13:07.717Z,94.81
2018-01-16T05:15:35.681Z,94.94
2018-01-16T05:18:03.545Z,94.38
2018-01-16T05:20:30.885Z,94.40
2018-01-16T05:22:57.885Z,94.41
2018-01-16T05:25:25.060Z,93.99
2018-01-16T05:27:52.192Z,93.25
2018-01-16T05:30:19.666Z,92.91
2018-01-16T05:32:46.928Z,92.55
2018-01-16T05:35:16.327Z,93.61
2018-01-16T05:37:44.285Z,93.81
2018-01-16T05:40:11.934Z,93.44
2018-01-16T05:42:38.774Z,93.93
2018-01-16T05:45:05.719Z,93.64
2018-01-16T05:47:33.249Z,92.82
2018-01-16T05:50:00.125Z,92.11
2018-01-16T05:52:27.003Z,92.55
2018-01-16T05:54:53.851Z,93.55
2018-01-16T05:57:20.718Z,93.18
2018-01-16T05:59:47.609Z,91.74
2018-01-16T06:02:15.389Z,92.66
2018-01-16T06:04:43.247Z,93.26
2018-01-16T06:07:10.928Z,91.91
2018-01-16T06:09:37.902Z,92.94
2018-01-16T06:12:04.851Z,92.86
2018-01-16T06:14:32.423Z,93.26
2018-01-16T06:16:59.561Z,92.97
2018-01-16T06:19:26.578Z,92.36
2018-01-16T06:21:53.600Z,92.83
2018-01-16T06:24:20.647Z,92.88
2018-01-16T06:26:47.660Z,93.02
2018-01-16T06:29:14.894Z,92.95
2018-01-16T06:31:41.791Z,92.87
2018-01-16T06:34:09.748Z,92.79
2018-01-16T06:36:36.961Z,91.91
2018-01-16T06:39:04.775Z,91.67
2018-01-16T06:41:31.849Z,91.83
2018-01-16T06:43:58.693Z,92.02
2018-01-16T06:46:26.354Z,91.91
2018-01-16T06:48:54.233Z,91.18
2018-01-16T06:51:21.227Z,92.04
2018-01-16T06:53:48.234Z,92.01
2018-01-16T06:56:15.181Z,90.91
2018-01-16T06:58:42.214Z,92.28
2018-01-16T07:01:09.082Z,91.52
2018-01-16T07:03:36.001Z,90.57
2018-01-16T07:06:02.958Z,91.67
2018-01-16T07:08:29.778Z,91.33
2018-01-16T07:10:56.730Z,90.67
2018-01-16T07:13:24.316Z,88.25
2018-01-16T07:15:51.194Z,90.04
2018-01-16T07:18:18.028Z,90.24
2018-01-16T07:20:45.632Z,91.20
2018-01-16T07:23:12.432Z,90.00
2018-01-16T07:25:39.307Z,91.06
2018-01-16T07:28:06.238Z,91.22
2018-01-16T07:30:33.073Z,91.17
2018-01-16T07:32:59.883Z,91.02
2018-01-16T07:35:26.695Z,91.49
2018-01-16T07:38:09.324Z,92.00
2018-01-16T07:40:48.794Z,92.91
2018-01-16T08:05:23.722Z,94.08
2018-01-16T08:07:58.856Z,94.54
2018-01-16T08:20:12.321Z,93.73
2018-01-16T08:22:39.103Z,94.32
2018-01-16T08:25:05.923Z,94.31
2018-01-16T08:27:32.736Z,94.39
2018-01-16T08:30:00.291Z,94.18
2018-01-16T08:32:27.842Z,93.83
2018-01-16T08:34:54.621Z,94.04
2018-01-16T08:37:21.501Z,93.94
2018-01-16T08:39:48.343Z,94.35
2018-01-16T08:42:15.146Z,94.22
2018-01-16T08:44:41.967Z,93.11
2018-01-16T08:47:08.752Z,92.97
2018-01-16T08:49:35.554Z,93.14
2018-01-16T08:52:02.435Z,92.64
2018-01-16T08:54:29.264Z,92.89
2018-01-16T08:56:56.100Z,92.81
2018-01-16T08:59:22.947Z,92.94
2018-01-16T09:01:50.506Z,93.21
2018-01-16T09:04:17.375Z,92.95
2018-01-16T09:06:44.167Z,93.20
2018-01-16T09:09:10.936Z,93.48
2018-01-16T09:11:37.764Z,92.96
2018-01-16T09:14:05.308Z,93.29
2018-01-16T09:16:32.123Z,92.63
2018-01-16T09:18:58.923Z,92.66
2018-01-16T09:21:25.724Z,92.56
2018-01-16T09:23:53.280Z,92.14
2018-01-16T09:26:20.082Z,92.06
2018-01-16T09:28:46.928Z,92.29
2018-01-16T09:31:13.721Z,91.87
2018-01-16T09:33:41.328Z,90.97
2018-01-16T09:36:08.142Z,90.27
2018-01-16T09:38:34.931Z,89.87
2018-01-16T09:41:02.736Z,91.50
2018-01-16T09:43:29.543Z,92.46
2018-01-16T09:45:56.317Z,92.42
2018-01-16T09:48:23.895Z,92.45
2018-01-16T09:50:50.691Z,92.08
2018-01-16T09:53:17.499Z,90.75
2018-01-16T09:55:44.293Z,90.29
2018-01-16T09:58:11.455Z,89.28
2018-01-16T10:00:38.350Z,90.85
2018-01-16T10:03:05.239Z,93.13
2018-01-16T10:05:32.061Z,94.85
2018-01-16T10:07:58.888Z,93.55
2018-01-16T10:10:25.760Z,93.11
2018-01-16T10:12:52.590Z,92.68
2018-01-16T10:15:19.410Z,92.27
2018-01-16T10:17:46.201Z,93.38
2018-01-16T10:20:13.698Z,93.30
2018-01-16T10:22:40.445Z,94.35
2018-01-16T10:25:07.208Z,92.39
2018-01-16T10:27:34.008Z,92.56
2018-01-16T10:30:00.807Z,93.10
2018-01-16T10:32:28.352Z,94.79
2018-01-16T10:34:55.502Z,93.61
2018-01-16T10:37:22.579Z,94.37
2018-01-16T10:39:49.424Z,92.60
2018-01-16T10:42:16.964Z,92.45
2018-01-16T10:44:44.516Z,93.78
2018-01-16T10:47:11.305Z,92.73
2018-01-16T10:49:38.949Z,93.56
2018-01-16T10:52:07.650Z,93.57
2018-01-16T10:54:34.472Z,92.91
2018-01-16T10:57:01.315Z,95.02
2018-01-16T10:59:28.126Z,93.32
2018-01-16T11:01:54.930Z,93.17
2018-01-16T11:04:22.451Z,93.65
2018-01-16T11:06:49.313Z,92.99
2018-01-16T11:09:16.103Z,93.24
2018-01-16T11:11:42.904Z,93.22
2018-01-16T11:14:09.705Z,93.82
2018-01-16T11:16:36.548Z,93.59
2018-01-16T11:19:03.406Z,92.94
2018-01-16T11:21:30.182Z,93.52
2018-01-16T11:23:56.975Z,93.15
2018-01-16T11:26:23.811Z,93.38
2018-01-16T11:28:50.641Z,93.05
2018-01-16T11:31:17.461Z,92.74
2018-01-16T11:33:44.978Z,92.74
2018-01-16T11:36:12.832Z,93.29
2018-01-16T11:38:39.645Z,93.82
2018-01-16T11:41:06.435Z,93.40
2018-01-16T11:43:33.246Z,92.41
2018-01-16T11:46:00.181Z,93.23
2018-01-16T11:48:26.957Z,93.26
2018-01-16T11:50:53.786Z,93.28
2018-01-16T11:53:23.564Z,93.56
2018-01-16T11:55:50.382Z,92.79
2018-01-16T11:58:18.912Z,92.74
2018-01-16T12:00:45.740Z,92.66
2018-01-16T12:03:13.315Z,92.56
2018-01-16T12:05:41.457Z,92.91
2018-01-16T12:08:09.833Z,92.77
2018-01-16T12:10:36.784Z,92.75
2018-01-16T12:13:03.606Z,92.50
2018-01-16T12:15:31.053Z,92.34
2018-01-16T12:17:59.037Z,92.54
2018-01-16T12:20:26.545Z,91.61
2018-01-16T12:22:53.722Z,92.53
2018-01-16T12:25:20.569Z,90.50
2018-01-16T12:27:47.336Z,91.54
2018-01-16T12:30:14.335Z,91.53
2018-01-16T12:32:41.863Z,91.04
2018-01-16T12:35:08.724Z,90.93
2018-01-16T12:37:35.487Z,90.69
2018-01-16T12:40:02.422Z,90.49
2018-01-16T12:42:29.219Z,90.91
2018-01-16T12:44:56.016Z,90.17
2018-01-16T12:47:23.010Z,90.94
2018-01-16T12:49:49.826Z,90.66
2018-01-16T12:52:16.705Z,90.38
2018-01-16T12:54:43.525Z,90.50
2018-01-16T12:57:10.331Z,90.22
2018-01-16T12:59:37.139Z,90.11
2018-01-16T13:02:03.924Z,89.57
2018-01-16T13:04:31.550Z,89.41
2018-01-16T13:06:58.346Z,89.63
2018-01-16T13:09:25.152Z,89.49
2018-01-16T13:14:25.121Z,89.80
2018-01-16T13:16:51.921Z,89.08
2018-01-16T13:19:18.710Z,88.75
2018-01-16T13:21:46.211Z,88.55
2018-01-16T13:24:12.962Z,88.35
2018-01-16T13:26:39.717Z,88.18
2018-01-16T13:29:06.502Z,85.06
2018-01-16T13:31:33.330Z,86.48
2018-01-16T13:34:00.851Z,87.66
2018-01-16T13:36:28.356Z,85.95
2018-01-16T13:38:55.919Z,86.99
2018-01-16T13:41:22.739Z,86.64
2018-01-16T13:43:49.593Z,86.54
2018-01-16T13:46:16.337Z,86.07
2018-01-16T13:48:43.875Z,85.74
2018-01-16T13:51:10.756Z,85.56
2018-01-16T13:53:37.550Z,86.00
2018-01-16T13:56:04.358Z,85.68
2018-01-16T13:58:31.292Z,85.69
2018-01-16T14:00:58.866Z,85.09
2018-01-16T14:03:25.803Z,85.95
2018-01-16T14:05:52.632Z,86.05
2018-01-16T14:08:19.458Z,86.34
2018-01-16T14:10:46.308Z,86.42
2018-01-16T14:13:13.092Z,85.29
2018-01-16T14:15:40.267Z,85.59
2018-01-16T14:18:07.871Z,86.29
2018-01-16T14:20:34.670Z,87.24
2018-01-16T14:23:01.729Z,88.87
2018-01-16T14:25:28.576Z,90.91
2018-01-16T14:27:56.347Z,92.27
2018-01-16T14:30:23.281Z,92.87
2018-01-16T14:32:50.109Z,91.79
2018-01-16T14:35:16.861Z,93.26
2018-01-16T14:37:43.877Z,93.90
2018-01-16T14:40:11.495Z,92.25
2018-01-16T14:42:39.018Z,91.54
2018-01-16T14:45:08.430Z,93.54
2018-01-16T14:47:35.800Z,93.55
2018-01-16T14:50:02.768Z,92.06
2018-01-16T14:52:29.564Z,93.89
2018-01-16T14:54:56.359Z,93.92
2018-01-16T14:57:23.165Z,93.79
2018-01-16T14:59:49.956Z,92.45
2018-01-16T15:02:16.751Z,92.92
2018-01-16T15:04:43.623Z,91.97
2018-01-16T15:07:10.423Z,91.26
2018-01-16T15:09:37.237Z,91.06
2018-01-16T15:12:05.157Z,92.73
2018-01-16T15:14:32.748Z,91.42
2018-01-16T15:16:59.542Z,91.34
2018-01-16T15:19:26.427Z,91.80
2018-01-16T15:21:53.269Z,91.16
2018-01-16T15:24:20.110Z,91.39
2018-01-16T15:26:47.623Z,91.87
2018-01-16T15:29:14.374Z,93.23
2018-01-16T15:31:41.118Z,94.21
2018-01-16T15:34:07.899Z,94.56
2018-01-16T15:36:34.706Z,92.62
2018-01-16T15:39:01.488Z,93.60
2018-01-16T15:41:29.003Z,92.88
2018-01-16T15:43:55.758Z,92.66
2018-01-16T15:46:22.560Z,93.41
2018-01-16T15:48:49.300Z,92.78
2018-01-16T15:51:16.130Z,93.08
2018-01-16T15:53:42.941Z,92.51
2018-01-16T15:56:09.689Z,92.60
2018-01-16T15:58:36.553Z,92.31
2018-01-16T16:01:03.401Z,91.92
2018-01-16T16:03:30.172Z,91.73
2018-01-16T16:05:57.008Z,91.35
2018-01-16T16:08:23.850Z,91.55
2018-01-16T16:10:50.633Z,91.19
2018-01-16T16:13:21.451Z,90.98
2018-01-16T16:15:48.303Z,90.19
2018-01-16T16:18:15.513Z,90.44
2018-01-16T16:20:43.496Z,89.87
2018-01-16T16:23:11.105Z,89.49
2018-01-16T16:25:37.981Z,88.66
2018-01-16T16:28:06.046Z,88.24
2018-01-16T16:30:32.907Z,87.96
2018-01-16T16:32:59.745Z,86.23
2018-01-16T16:35:26.564Z,86.08
2018-01-16T16:37:54.115Z,87.52
2018-01-16T16:40:20.886Z,87.69
2018-01-16T16:42:49.746Z,86.66
2018-01-16T16:45:16.938Z,87.66
2018-01-16T16:47:44.840Z,87.85
2018-01-16T16:50:11.623Z,87.86
2018-01-16T16:52:39.272Z,87.99
2018-01-16T16:55:06.817Z,88.62
2018-01-16T16:57:33.788Z,89.44
2018-01-16T17:00:01.568Z,89.68
2018-01-16T17:02:28.908Z,89.91
2018-01-16T17:04:56.224Z,89.62
2018-01-16T17:07:23.461Z,89.92
2018-01-16T17:09:50.344Z,89.69
2018-01-16T17:12:17.474Z,90.26
2018-01-16T17:14:44.409Z,89.81
2018-01-16T17:17:11.236Z,89.78
2018-01-16T17:19:38.525Z,89.00
2018-01-16T17:22:05.355Z,89.82
2018-01-16T17:24:33.170Z,89.91
2018-01-16T17:27:00.434Z,90.18
2018-01-16T17:29:27.908Z,89.70
2018-01-16T17:31:54.884Z,90.26
2018-01-16T17:34:21.957Z,90.23
2018-01-16T17:36:48.961Z,90.37
2018-01-16T17:39:15.927Z,90.28
2018-01-16T17:41:43.368Z,90.53
2018-01-16T17:44:10.386Z,90.33
2018-01-16T17:46:37.188Z,89.73
2018-01-16T17:49:03.983Z,90.15
2018-01-16T17:51:30.818Z,89.85
2018-01-16T17:53:58.351Z,90.05
2018-01-16T17:56:25.161Z,90.60
2018-01-16T17:58:52.756Z,90.58
2018-01-16T18:01:20.133Z,90.92
2018-01-16T18:03:47.363Z,90.09
2018-01-16T18:06:14.674Z,90.23
2018-01-16T18:08:42.209Z,90.52
2018-01-16T18:11:09.891Z,90.27
2018-01-16T18:13:37.281Z,90.33
2018-01-16T18:16:05.332Z,89.85
2018-01-16T18:18:32.860Z,89.97
2018-01-16T18:21:00.200Z,90.03
2018-01-16T18:23:27.934Z,91.51
2018-01-16T18:25:54.827Z,91.82
2018-01-16T18:28:21.627Z,92.69
2018-01-16T18:30:49.351Z,93.27
2018-01-16T18:33:16.205Z,93.61
2018-01-16T18:35:43.017Z,92.88
2018-01-16T18:38:09.915Z,91.65
2018-01-16T18:40:37.446Z,92.02
2018-01-16T18:43:04.276Z,91.24
2018-01-16T18:45:31.689Z,91.32
2018-01-16T18:47:59.285Z,90.69
2018-01-16T18:50:26.879Z,90.93
2018-01-16T18:52:55.046Z,91.51
2018-01-16T18:55:21.939Z,91.31
2018-01-16T18:57:48.758Z,91.56
2018-01-16T19:00:15.726Z,90.88
2018-01-16T19:02:42.578Z,90.78
2018-01-16T19:05:09.448Z,91.20
2018-01-16T19:07:36.385Z,90.23
2018-01-16T19:10:03.261Z,90.92
2018-01-16T19:12:31.094Z,90.24
2018-01-16T19:14:59.168Z,90.33
2018-01-16T19:17:27.812Z,90.57
2018-01-16T19:19:56.417Z,90.90
2018-01-16T19:22:24.043Z,90.42
2018-01-16T19:24:52.113Z,90.01
2018-01-16T19:27:20.790Z,90.27
2018-01-16T19:29:50.378Z,89.80
2018-01-16T19:32:19.280Z,90.17
2018-01-16T19:34:48.753Z,89.51
2018-01-16T19:37:18.241Z,89.98
2018-01-16T19:39:47.838Z,89.34
2018-01-16T19:42:16.545Z,89.43
2018-01-16T19:44:45.089Z,89.78
2018-01-16T19:47:13.995Z,89.81
2018-01-16T19:49:42.843Z,89.37
2018-01-16T19:52:12.495Z,89.37
2018-01-16T19:54:41.378Z,89.18
2018-01-16T19:57:09.957Z,89.82
2018-01-16T19:59:38.751Z,89.36
2018-01-16T20:02:07.652Z,89.42
2018-01-16T20:04:36.451Z,89.08
2018-01-16T20:07:13.315Z,88.11
2018-01-16T20:09:42.152Z,89.43
2018-01-16T20:12:10.922Z,89.45
2018-01-16T20:14:40.595Z,89.83
2018-01-16T20:17:09.494Z,90.26
2018-01-16T20:19:39.615Z,89.64
2018-01-16T20:22:08.984Z,89.69
2018-01-16T20:24:37.700Z,89.77
2018-01-16T20:27:06.593Z,89.82
2018-01-16T20:29:36.097Z,90.10
2018-01-16T20:32:04.544Z,89.91
2018-01-16T20:34:33.330Z,90.02
2018-01-16T20:37:02.152Z,90.25
2018-01-16T20:39:30.982Z,90.36
2018-01-16T20:41:59.760Z,90.29
2018-01-16T20:44:29.377Z,90.35
2018-01-16T20:46:58.028Z,90.27
2018-01-16T20:49:27.617Z,91.51
2018-01-16T20:51:57.319Z,90.80
2018-01-16T20:54:26.113Z,90.04
2018-01-16T20:56:54.965Z,90.20
2018-01-16T20:59:24.873Z,90.21
2018-01-16T21:01:54.503Z,89.93
2018-01-16T21:04:23.338Z,89.63
2018-01-16T21:06:51.751Z,89.68
2018-01-16T21:09:20.539Z,89.66
2018-01-16T21:11:49.894Z,90.16
2018-01-16T21:14:18.545Z,90.11
2018-01-16T21:16:47.141Z,90.22
2018-01-16T21:19:15.920Z,90.09
2018-01-16T21:21:44.873Z,90.25
2018-01-16T21:24:14.518Z,90.52
2018-01-16T21:26:44.170Z,90.08
2018-01-16T21:29:12.722Z,90.29
2018-01-16T21:31:41.232Z,90.12
2018-01-16T21:34:09.887Z,90.00
2018-01-16T21:36:39.123Z,90.19
2018-01-16T21:39:06.233Z,90.27
2018-01-16T21:41:33.352Z,90.57
2018-01-16T21:44:01.017Z,91.05
2018-01-16T21:46:28.101Z,90.45
2018-01-16T21:48:55.036Z,90.47
2018-01-16T22:03:28.743Z,90.41
2018-01-16T22:05:55.536Z,90.53
2018-01-16T22:08:22.385Z,90.55
2018-01-16T22:10:52.171Z,90.40
2018-01-16T22:13:19.004Z,90.70
2018-01-16T22:15:45.838Z,90.36
2018-01-16T22:18:13.373Z,90.60
2018-01-16T22:20:40.173Z,89.94
2018-01-16T22:23:07.734Z,90.58
2018-01-16T22:25:35.270Z,90.46
2018-01-16T22:28:02.462Z,90.42
2018-01-16T22:30:29.291Z,90.35
2018-01-16T22:32:56.183Z,90.79
2018-01-16T22:35:22.987Z,90.44
2018-01-16T22:37:49.778Z,90.21
2018-01-16T22:40:16.611Z,90.76
2018-01-16T22:42:43.447Z,90.16
2018-01-16T22:45:10.994Z,90.55
2018-01-16T22:47:37.804Z,90.41
2018-01-16T22:50:04.616Z,90.46
2018-01-16T22:52:34.025Z,90.28
2018-01-16T22:55:00.830Z,90.57
2018-01-16T22:57:28.404Z,90.88
2018-01-16T22:59:55.948Z,90.43
2018-01-16T23:02:24.652Z,90.43
2018-01-16T23:04:51.469Z,90.21
2018-01-16T23:07:18.289Z,91.21
2018-01-16T23:09:45.062Z,91.47
2018-01-16T23:12:12.610Z,91.11
2018-01-16T23:14:39.418Z,90.89
2018-01-16T23:17:06.366Z,90.78
2018-01-16T23:19:33.775Z,90.98
2018-01-16T23:22:00.617Z,91.19
2018-01-16T23:24:27.567Z,91.23
2018-01-16T23:26:55.622Z,91.14
2018-01-16T23:29:22.414Z,91.39
2018-01-16T23:31:51.214Z,90.97
2018-01-16T23:50:12.922Z,90.95
2018-01-16T23:52:39.759Z,90.53
2018-01-16T23:55:06.551Z,91.11
2018-01-16T23:57:33.331Z,91.01
